Time;durP1;ratioP1;P1;durP2;ratioP2;P2;SDS_P1;SDS_P2;PMS_P1;PMS_P2;Temp;Humidity;BMP_temperature;BMP_pressure;BME280_temperature;BME280_humidity;BME280_pressure;Samples;Min_cycle;Max_cycle;Signal;HPM_P1;HPM_P2
2022/01/31 00:02:23;;;;;;;21.60;4.18;;;3.80;99.90;;;;;;5063999;28;20052;-88
2022/01/31 00:04:49;;;;;;;21.20;4.78;;;3.60;99.90;;;;;;5066296;28;20057;-85
2022/01/31 00:07:15;;;;;;;20.65;4.32;;;3.90;99.90;;;;;;5064624;28;20044;-89
2022/01/31 00:09:44;;;;;;;17.85;4.32;;;3.60;99.90;;;;;;5076890;28;20041;-86
2022/01/31 00:12:17;;;;;;;24.33;5.28;;;6.50;99.90;;;;;;5052372;28;20085;-82
2022/01/31 00:14:48;;;;;;;25.02;5.32;;;2.20;99.90;;;;;;5047890;28;20091;-84
2022/01/31 00:17:15;;;;;;;24.30;4.47;;;4.40;99.90;;;;;;5063254;28;20048;-81
2022/01/31 00:19:42;;;;;;;16.15;3.95;;;3.70;99.90;;;;;;5055260;28;20036;-88
2022/01/31 00:22:09;;;;;;;20.35;4.90;;;3.70;99.90;;;;;;5046777;28;20052;-90
2022/01/31 00:24:35;;;;;;;20.30;4.25;;;4.70;99.90;;;;;;5060629;28;20123;-86
2022/01/31 00:27:03;;;;;;;18.58;4.13;;;5.00;99.90;;;;;;5060577;28;20483;-87
2022/01/31 00:29:29;;;;;;;22.13;4.18;;;3.80;99.90;;;;;;5042841;28;20392;-91
2022/01/31 00:31:55;;;;;;;23.17;4.18;;;3.70;99.90;;;;;;5046230;28;20055;-86
2022/01/31 00:34:21;;;;;;;16.27;4.13;;;5.30;99.90;;;;;;5065144;28;20055;-89
2022/01/31 00:36:47;;;;;;;27.40;5.18;;;4.70;99.90;;;;;;5070597;28;20388;-90
2022/01/31 00:39:12;;;;;;;18.23;4.35;;;3.70;99.90;;;;;;5053220;28;20045;-89
2022/01/31 00:41:38;;;;;;;19.65;4.20;;;3.60;99.90;;;;;;5064652;28;20041;-90
2022/01/31 00:44:17;;;;;;;21.27;4.88;;;3.60;99.90;;;;;;5067184;28;20048;-87
2022/01/31 00:46:51;;;;;;;16.83;4.18;;;4.20;99.90;;;;;;5053702;28;20295;-88
2022/01/31 00:49:27;;;;;;;22.20;5.47;;;3.80;99.90;;;;;;5044154;28;20045;-89
2022/01/31 00:51:54;;;;;;;17.10;4.55;;;5.80;99.90;;;;;;5068147;28;20052;-87
2022/01/31 00:54:23;;;;;;;20.13;5.47;;;3.60;99.90;;;;;;5068063;28;20500;-89
2022/01/31 00:56:50;;;;;;;29.98;6.38;;;3.80;99.90;;;;;;5068675;28;20109;-84
2022/01/31 00:59:15;;;;;;;14.43;4.65;;;3.60;99.90;;;;;;5049635;28;20586;-88
2022/01/31 01:01:41;;;;;;;22.80;5.50;;;3.70;99.90;;;;;;5051823;28;20492;-86
2022/01/31 01:04:07;;;;;;;23.02;6.15;;;3.60;99.90;;;;;;5068343;28;20045;-86
2022/01/31 01:06:32;;;;;;;17.38;5.68;;;3.70;99.90;;;;;;5066975;28;20033;-84
2022/01/31 01:08:58;;;;;;;23.67;5.88;;;3.30;99.90;;;;;;5068883;28;20045;-88
2022/01/31 01:11:23;;;;;;;21.02;6.85;;;3.70;99.90;;;;;;5054268;28;20128;-85
2022/01/31 01:13:49;;;;;;;22.73;6.10;;;3.70;99.90;;;;;;5071503;28;20491;-86
2022/01/31 01:16:15;;;;;;;26.92;6.68;;;3.60;99.90;;;;;;5070234;28;20048;-84
2022/01/31 01:18:41;;;;;;;24.08;7.05;;;4.40;99.90;;;;;;5070769;28;20071;-86
2022/01/31 01:21:06;;;;;;;23.88;6.55;;;3.70;99.90;;;;;;5070666;28;20048;-87
2022/01/31 01:23:32;;;;;;;23.27;6.10;;;3.60;99.90;;;;;;5073873;28;20066;-88
2022/01/31 01:25:58;;;;;;;23.10;8.00;;;3.70;99.90;;;;;;5069700;28;20083;-86
2022/01/31 01:28:25;;;;;;;19.05;7.43;;;3.70;99.90;;;;;;5070474;28;20032;-87
2022/01/31 01:30:51;;;;;;;29.23;7.75;;;4.20;99.90;;;;;;5070981;28;20084;-87
2022/01/31 01:33:22;;;;;;;21.08;9.13;;;3.70;99.90;;;;;;5074412;28;20051;-84
2022/01/31 01:35:50;;;;;;;25.25;9.15;;;3.50;99.90;;;;;;5079255;28;20051;-85
2022/01/31 01:38:17;;;;;;;24.98;8.70;;;3.50;99.90;;;;;;5054592;28;20597;-86
2022/01/31 01:40:44;;;;;;;15.63;5.75;;;3.60;99.90;;;;;;5070072;28;20048;-87
2022/01/31 01:43:11;;;;;;;24.83;10.32;;;3.60;99.90;;;;;;5053256;28;20049;-85
2022/01/31 01:45:39;;;;;;;24.23;9.18;;;3.60;99.90;;;;;;5053283;28;20044;-85
2022/01/31 01:48:06;;;;;;;16.02;9.57;;;3.50;99.90;;;;;;5068725;28;20097;-84
2022/01/31 01:50:37;;;;;;;24.98;10.93;;;3.40;99.90;;;;;;5053030;28;20051;-83
2022/01/31 01:53:04;;;;;;;19.25;10.15;;;3.50;99.90;;;;;;5052982;28;20412;-86
2022/01/31 01:55:30;;;;;;;9.55;6.20;;;5.40;99.90;;;;;;5068443;28;20052;-84
2022/01/31 01:57:57;;;;;;;23.52;9.35;;;3.50;99.90;;;;;;5070500;28;20041;-86
2022/01/31 02:00:27;;;;;;;19.13;10.02;;;3.40;99.90;;;;;;5070716;28;20044;-84
2022/01/31 02:02:55;;;;;;;24.40;9.85;;;3.20;99.90;;;;;;5069233;28;20084;-88
2022/01/31 02:05:21;;;;;;;16.88;9.32;;;3.20;99.90;;;;;;5069460;28;20079;-84
2022/01/31 02:07:47;;;;;;;13.27;7.78;;;5.40;99.90;;;;;;5053098;28;20043;-86
2022/01/31 02:10:15;;;;;;;10.82;6.82;;;3.00;99.90;;;;;;5067773;28;20036;-88
2022/01/31 02:12:43;;;;;;;12.63;6.22;;;3.30;99.90;;;;;;5070116;28;20507;-86
2022/01/31 02:15:10;;;;;;;12.77;7.22;;;3.10;99.90;;;;;;5068709;28;20053;-86
2022/01/31 02:17:37;;;;;;;11.10;7.45;;;2.40;99.90;;;;;;5051847;28;20032;-86
2022/01/31 02:20:08;;;;;;;11.75;6.95;;;2.90;99.90;;;;;;5069420;28;20047;-86
2022/01/31 02:22:34;;;;;;;11.75;6.90;;;3.00;99.90;;;;;;5051831;28;20036;-88
2022/01/31 02:25:00;;;;;;;10.60;7.07;;;4.10;99.90;;;;;;5051137;28;20056;-87
2022/01/31 02:27:31;;;;;;;11.27;7.88;;;2.90;99.90;;;;;;5068559;28;20040;-86
2022/01/31 02:29:57;;;;;;;13.02;7.90;;;3.20;99.90;;;;;;5068122;28;20365;-86
2022/01/31 02:32:23;;;;;;;16.80;8.13;;;2.70;99.90;;;;;;5052586;28;20123;-87
2022/01/31 02:34:50;;;;;;;13.23;8.23;;;2.80;99.90;;;;;;5070398;28;20037;-88
2022/01/31 02:37:17;;;;;;;12.30;8.80;;;2.80;99.90;;;;;;5068251;28;20044;-88
2022/01/31 02:39:42;;;;;;;12.82;8.23;;;4.30;99.90;;;;;;5070334;28;20060;-89
2022/01/31 02:42:08;;;;;;;15.98;9.55;;;2.90;99.90;;;;;;5069254;28;20068;-87
2022/01/31 02:44:37;;;;;;;13.95;8.40;;;3.00;99.90;;;;;;5069618;28;20041;-86
2022/01/31 02:47:09;;;;;;;14.27;8.07;;;3.00;99.90;;;;;;5069308;28;20500;-88
2022/01/31 02:49:44;;;;;;;14.90;8.05;;;3.10;99.90;;;;;;5052139;28;20393;-87
2022/01/31 02:52:13;;;;;;;11.55;8.10;;;3.80;99.90;;;;;;5070539;28;20049;-85
2022/01/31 02:54:38;;;;;;;15.10;8.60;;;3.10;99.90;;;;;;5070220;28;20048;-85
2022/01/31 02:57:04;;;;;;;11.75;7.35;;;3.00;99.90;;;;;;5070227;28;20055;-87
2022/01/31 02:59:31;;;;;;;13.35;7.38;;;3.10;99.90;;;;;;5067341;28;20041;-88
2022/01/31 03:01:57;;;;;;;13.98;7.18;;;3.20;99.90;;;;;;5052365;28;20040;-87
2022/01/31 03:04:23;;;;;;;8.23;5.50;;;3.10;99.90;;;;;;5068821;28;20032;-87
2022/01/31 03:06:49;;;;;;;12.27;4.88;;;3.70;99.90;;;;;;5064717;28;20067;-86
2022/01/31 03:09:16;;;;;;;11.48;5.85;;;3.30;99.90;;;;;;5069247;28;20178;-87
2022/01/31 03:11:42;;;;;;;11.13;6.22;;;3.40;99.90;;;;;;5069918;28;20489;-83
2022/01/31 03:14:08;;;;;;;8.52;5.38;;;3.20;99.90;;;;;;5052545;28;20047;-89
2022/01/31 03:16:39;;;;;;;9.15;5.47;;;4.30;99.90;;;;;;5068435;28;20140;-83
2022/01/31 03:19:05;;;;;;;12.40;6.15;;;3.50;99.90;;;;;;5068194;28;20135;-84
2022/01/31 03:21:30;;;;;;;12.73;5.65;;;3.40;99.90;;;;;;5053681;28;20084;-87
2022/01/31 03:23:56;;;;;;;12.07;6.07;;;5.20;99.90;;;;;;5055314;28;20040;-85
2022/01/31 03:26:22;;;;;;;15.52;5.93;;;3.60;99.90;;;;;;5072016;28;20044;-85
2022/01/31 03:28:49;;;;;;;13.40;4.50;;;5.90;99.90;;;;;;5073191;28;20040;-88
2022/01/31 03:31:18;;;;;;;13.82;4.45;;;3.80;99.90;;;;;;5059646;28;20445;-86
2022/01/31 03:33:48;;;;;;;15.35;3.47;;;4.00;99.90;;;;;;5082234;28;20036;-86
2022/01/31 03:36:14;;;;;;;29.55;4.57;;;4.20;99.90;;;;;;5072508;28;20048;-88
2022/01/31 03:38:41;;;;;;;16.23;2.40;;;4.30;99.90;;;;;;5072368;28;20268;-85
2022/01/31 03:41:08;;;;;;;23.40;3.80;;;6.30;99.90;;;;;;5054706;28;20421;-86
2022/01/31 03:43:34;;;;;;;20.13;3.42;;;6.90;99.90;;;;;;5071908;28;20404;-85
2022/01/31 03:46:00;;;;;;;27.77;4.18;;;4.90;99.90;;;;;;5068879;28;20055;-87
2022/01/31 03:48:29;;;;;;;30.60;4.47;;;7.00;99.90;;;;;;5071024;28;20392;-85
2022/01/31 03:50:56;;;;;;;18.13;3.63;;;6.90;99.90;;;;;;5055131;28;20051;-89
2022/01/31 03:53:21;;;;;;;16.65;3.17;;;5.00;99.90;;;;;;5072940;28;20064;-86
2022/01/31 03:55:47;;;;;;;23.83;3.90;;;6.00;99.90;;;;;;5053845;28;20499;-89
2022/01/31 03:58:13;;;;;;;25.65;3.78;;;5.20;99.90;;;;;;5071458;28;20476;-89
2022/01/31 04:00:39;;;;;;;23.08;3.72;;;5.90;99.90;;;;;;5071712;28;20048;-87
2022/01/31 04:03:05;;;;;;;22.20;3.42;;;5.40;99.90;;;;;;5054453;28;20040;-84
2022/01/31 04:05:31;;;;;;;12.98;2.47;;;5.40;99.90;;;;;;5071322;28;20049;-86
2022/01/31 04:07:57;;;;;;;16.02;2.65;;;5.40;99.90;;;;;;5071957;28;20522;-88
2022/01/31 04:10:24;;;;;;;21.33;3.03;;;5.40;99.90;;;;;;5054367;28;20043;-88
2022/01/31 04:12:49;;;;;;;17.35;2.80;;;5.50;99.90;;;;;;5072034;28;20051;-85
2022/01/31 04:15:15;;;;;;;19.30;3.33;;;4.30;99.90;;;;;;5054358;28;20041;-86
2022/01/31 04:17:41;;;;;;;14.43;2.05;;;7.40;99.90;;;;;;5070082;28;20403;-88
2022/01/31 04:20:08;;;;;;;17.02;2.13;;;5.50;99.90;;;;;;5064610;28;20117;-87
2022/01/31 04:22:38;;;;;;;21.20;3.30;;;5.50;99.90;;;;;;5052868;28;20127;-88
2022/01/31 04:25:06;;;;;;;14.35;2.25;;;5.30;99.90;;;;;;5047760;28;20076;-89
2022/01/31 04:27:44;;;;;;;6.18;1.25;;;5.20;99.90;;;;;;5071204;28;20089;-85
2022/01/31 04:30:12;;;;;;;14.15;2.30;;;5.10;99.90;;;;;;5063323;28;20114;-85
2022/01/31 04:32:38;;;;;;;12.98;1.73;;;5.10;99.90;;;;;;5062237;28;20044;-89
2022/01/31 04:35:09;;;;;;;16.98;2.47;;;4.90;99.90;;;;;;5069926;28;20381;-90
2022/01/31 04:37:35;;;;;;;14.18;2.00;;;4.80;99.90;;;;;;5070379;28;20040;-86
2022/01/31 04:40:00;;;;;;;17.42;2.72;;;6.40;99.90;;;;;;5072458;28;20044;-87
2022/01/31 04:42:26;;;;;;;20.98;2.90;;;4.70;99.90;;;;;;5071149;28;20400;-88
2022/01/31 04:44:54;;;;;;;24.23;4.28;;;4.70;99.90;;;;;;5071262;28;20068;-88
2022/01/31 04:47:19;;;;;;;17.27;2.35;;;4.80;99.90;;;;;;5070386;28;20567;-88
2022/01/31 04:49:45;;;;;;;21.30;3.33;;;5.50;99.90;;;;;;5055150;28;20092;-86
2022/01/31 04:52:12;;;;;;;24.75;3.60;;;5.00;99.90;;;;;;5053584;28;20074;-88
2022/01/31 04:54:37;;;;;;;20.15;3.47;;;5.10;99.90;;;;;;5070951;28;20079;-88
2022/01/31 04:57:04;;;;;;;24.95;2.67;;;4.90;99.90;;;;;;5070433;28;20052;-86
2022/01/31 04:59:29;;;;;;;20.55;3.38;;;5.40;99.90;;;;;;5067475;28;20083;-88
2022/01/31 05:01:55;;;;;;;24.60;3.55;;;5.10;99.90;;;;;;5046513;28;20472;-88
2022/01/31 05:04:21;;;;;;;20.65;2.88;;;5.10;99.90;;;;;;5050721;28;20052;-78
2022/01/31 05:06:48;;;;;;;11.13;1.65;;;5.10;99.90;;;;;;5054579;28;20123;-86
2022/01/31 05:09:14;;;;;;;13.52;1.30;;;5.40;99.90;;;;;;5053517;28;20507;-79
2022/01/31 05:11:39;;;;;;;9.75;1.10;;;5.50;99.90;;;;;;5054228;28;20048;-86
2022/01/31 05:14:05;;;;;;;3.38;0.50;;;5.20;99.90;;;;;;5071142;28;20523;-87
2022/01/31 05:16:31;;;;;;;10.48;0.65;;;5.40;99.90;;;;;;5054559;28;20435;-87
2022/01/31 05:18:56;;;;;;;6.50;1.00;;;4.60;99.90;;;;;;5053223;28;20529;-83
2022/01/31 05:21:22;;;;;;;10.00;1.13;;;4.30;99.90;;;;;;5070829;28;20082;-87
2022/01/31 05:23:49;;;;;;;5.38;0.73;;;4.50;99.90;;;;;;5056710;28;20040;-85
2022/01/31 05:26:15;;;;;;;6.35;0.47;;;4.40;99.90;;;;;;5070954;28;20079;-88
2022/01/31 05:28:41;;;;;;;5.72;1.30;;;4.40;99.90;;;;;;5071436;28;20076;-90
2022/01/31 05:31:07;;;;;;;8.68;0.75;;;4.10;99.90;;;;;;5080047;28;20048;-86
2022/01/31 05:33:33;;;;;;;5.25;0.70;;;4.30;99.90;;;;;;5060899;28;20097;-88
2022/01/31 05:35:59;;;;;;;7.10;0.70;;;4.50;99.90;;;;;;5083521;28;20040;-89
2022/01/31 05:38:25;;;;;;;9.70;0.98;;;4.40;99.90;;;;;;5071781;28;20044;-86
2022/01/31 05:40:50;;;;;;;7.60;1.02;;;5.00;99.90;;;;;;5071456;28;20040;-89
2022/01/31 05:43:19;;;;;;;8.95;2.28;;;4.30;99.90;;;;;;5071737;28;20500;-90
2022/01/31 05:45:46;;;;;;;11.38;1.27;;;4.40;99.90;;;;;;5053180;28;20040;-90
2022/01/31 05:48:11;;;;;;;8.73;0.90;;;3.90;99.90;;;;;;5069412;28;20045;-89
2022/01/31 05:50:37;;;;;;;10.00;1.00;;;4.00;99.90;;;;;;5070967;28;20032;-90
2022/01/31 05:53:03;;;;;;;13.00;1.73;;;4.50;99.90;;;;;;5070563;28;20040;-89
2022/01/31 05:55:29;;;;;;;5.60;1.13;;;4.50;99.90;;;;;;5051407;28;20118;-86
2022/01/31 05:57:54;;;;;;;9.45;1.30;;;3.40;99.90;;;;;;5059034;28;20119;-87
2022/01/31 06:00:21;;;;;;;13.60;1.60;;;4.60;99.90;;;;;;5052701;28;20059;-90
2022/01/31 06:02:53;;;;;;;9.98;2.15;;;5.50;99.90;;;;;;5070616;28;20488;-90
2022/01/31 06:05:19;;;;;;;18.40;1.98;;;4.40;99.90;;;;;;5053116;28;20052;-89
2022/01/31 06:07:45;;;;;;;17.60;1.58;;;4.50;99.90;;;;;;5061839;28;20037;-90
2022/01/31 06:10:11;;;;;;;11.65;1.70;;;4.40;99.90;;;;;;5067666;28;20578;-86
2022/01/31 06:12:40;;;;;;;15.40;1.48;;;4.30;99.90;;;;;;5069106;28;20128;-87
2022/01/31 06:15:07;;;;;;;15.27;1.77;;;4.40;99.90;;;;;;5059608;28;20044;-86
2022/01/31 06:17:32;;;;;;;12.32;1.40;;;4.50;99.90;;;;;;5068952;28;20033;-86
2022/01/31 06:19:58;;;;;;;13.85;1.27;;;4.50;99.90;;;;;;5067393;28;20062;-87
2022/01/31 06:22:23;;;;;;;21.08;2.67;;;4.50;99.90;;;;;;5067237;28;20076;-86
2022/01/31 06:24:49;;;;;;;6.20;1.40;;;4.50;99.90;;;;;;5050830;28;20029;-85
2022/01/31 06:27:16;;;;;;;9.43;1.08;;;4.50;99.90;;;;;;5051610;28;20492;-85
2022/01/31 06:29:46;;;;;;;10.77;1.42;;;5.10;99.90;;;;;;5063221;28;20080;-90
2022/01/31 06:32:12;;;;;;;18.34;1.14;;;4.40;99.90;;;;;;4716100;28;10000452;-87
2022/01/31 06:34:38;;;;;;;5.60;1.10;;;3.30;99.90;;;;;;5066644;28;20044;-87
2022/01/31 06:37:04;;;;;;;8.63;1.33;;;4.60;99.90;;;;;;5045047;28;20045;-81
2022/01/31 06:39:31;;;;;;;7.30;0.82;;;4.60;99.90;;;;;;5044636;28;20056;-83
2022/01/31 06:41:56;;;;;;;10.00;1.10;;;4.60;99.90;;;;;;5062352;28;20044;-88
2022/01/31 06:44:24;;;;;;;4.85;0.70;;;4.60;99.90;;;;;;5054764;28;20048;-80
2022/01/31 06:46:50;;;;;;;7.75;1.13;;;4.40;99.90;;;;;;5064967;28;20497;-80
2022/01/31 06:49:16;;;;;;;4.68;0.98;;;4.50;99.90;;;;;;5045704;28;20049;-81
2022/01/31 06:51:41;;;;;;;7.28;1.13;;;6.50;99.90;;;;;;5047006;28;20056;-81
2022/01/31 06:54:07;;;;;;;12.45;1.52;;;4.60;99.90;;;;;;5080138;28;20087;-84
2022/01/31 06:56:37;;;;;;;13.70;2.15;;;4.80;99.90;;;;;;5050875;28;20098;-80
2022/01/31 06:59:03;;;;;;;13.80;2.03;;;4.70;99.90;;;;;;5064627;28;20532;-80
2022/01/31 07:01:29;;;;;;;8.52;1.85;;;4.60;99.90;;;;;;5070200;28;20060;-84
2022/01/31 07:03:55;;;;;;;12.80;2.55;;;4.50;99.90;;;;;;5070637;28;20059;-84
2022/01/31 07:06:23;;;;;;;11.30;1.98;;;4.60;99.90;;;;;;5071196;28;20048;-81
2022/01/31 07:08:49;;;;;;;11.70;2.25;;;4.70;99.90;;;;;;5070550;28;20166;-84
2022/01/31 07:11:21;;;;;;;15.40;1.67;;;4.70;99.90;;;;;;5071328;28;20102;-83
2022/01/31 07:13:49;;;;;;;17.30;2.35;;;4.60;99.90;;;;;;5069425;28;20040;-84
2022/01/31 07:16:14;;;;;;;14.70;1.73;;;4.40;99.90;;;;;;5070211;28;20040;-82
2022/01/31 07:18:41;;;;;;;11.63;1.55;;;4.70;99.90;;;;;;5069842;28;20097;-84
2022/01/31 07:21:11;;;;;;;16.00;1.60;;;4.70;99.90;;;;;;5071156;28;20110;-83
2022/01/31 07:24:05;;;;;;;16.13;1.77;;;5.10;99.90;;;;;;5089035;28;20049;-80
2022/01/31 07:26:31;;;;;;;10.43;1.88;;;4.60;99.90;;;;;;5071712;28;20499;-86
2022/01/31 07:28:57;;;;;;;10.93;1.75;;;4.60;99.90;;;;;;5074239;28;20044;-87
2022/01/31 07:31:22;;;;;;;12.02;1.13;;;4.70;99.90;;;;;;5083902;28;20055;-84
2022/01/31 07:33:48;;;;;;;11.10;1.50;;;4.60;99.90;;;;;;5074589;28;20047;-79
2022/01/31 07:36:14;;;;;;;8.55;2.88;;;4.60;99.90;;;;;;5073328;28;20486;-81
2022/01/31 07:38:41;;;;;;;9.45;1.48;;;4.50;99.90;;;;;;5073755;28;20041;-88
2022/01/31 07:41:10;;;;;;;12.13;1.98;;;4.50;99.90;;;;;;5071860;28;20051;-87
2022/01/31 07:43:38;;;;;;;17.55;4.25;;;4.40;99.90;;;;;;5074693;28;20036;-88
2022/01/31 07:46:04;;;;;;;12.80;2.63;;;4.50;99.90;;;;;;5071826;28;20040;-86
2022/01/31 07:48:31;;;;;;;14.35;2.83;;;4.40;99.90;;;;;;5072036;28;20041;-88
2022/01/31 07:50:56;;;;;;;9.75;2.03;;;4.40;99.90;;;;;;5072569;28;20426;-79
2022/01/31 07:53:22;;;;;;;16.67;2.10;;;4.50;99.90;;;;;;5055023;28;20083;-86
2022/01/31 07:55:48;;;;;;;13.15;2.00;;;4.50;99.90;;;;;;5055323;28;20070;-88
2022/01/31 07:58:13;;;;;;;8.98;1.70;;;4.50;99.90;;;;;;5071557;28;20124;-80
2022/01/31 08:00:39;;;;;;;21.02;3.45;;;4.50;99.90;;;;;;5054719;28;20044;-90
2022/01/31 08:03:04;;;;;;;23.45;11.07;;;4.60;99.90;;;;;;5088033;28;20060;-85
2022/01/31 08:05:30;;;;;;;11.35;2.10;;;4.70;99.90;;;;;;5071195;28;20464;-80
2022/01/31 08:07:55;;;;;;;11.93;2.08;;;4.60;99.90;;;;;;5069895;28;20473;-82
2022/01/31 08:10:22;;;;;;;9.43;1.67;;;4.50;99.90;;;;;;5055377;28;20052;-83
2022/01/31 08:12:47;;;;;;;8.30;1.55;;;4.60;99.90;;;;;;5072332;28;20086;-89
2022/01/31 08:15:22;;;;;;;12.63;1.92;;;4.90;99.90;;;;;;5071385;28;20052;-88
2022/01/31 08:17:47;;;;;;;14.65;2.65;;;4.60;99.90;;;;;;5071842;28;20124;-88
2022/01/31 08:20:13;;;;;;;12.55;2.05;;;4.60;99.90;;;;;;5072057;28;20127;-88
2022/01/31 08:22:38;;;;;;;11.85;1.88;;;4.70;99.90;;;;;;5073349;28;20052;-88
2022/01/31 08:25:05;;;;;;;18.80;1.88;;;4.70;99.90;;;;;;5055700;28;20537;-88
2022/01/31 08:27:31;;;;;;;10.10;1.40;;;4.70;99.90;;;;;;5071217;28;20067;-84
2022/01/31 08:30:06;;;;;;;11.73;1.52;;;4.70;99.90;;;;;;5072678;28;20040;-83
2022/01/31 08:32:43;;;;;;;7.40;1.00;;;4.60;99.90;;;;;;5072176;28;20135;-88
2022/01/31 08:37:54;;;;;;;10.50;1.13;;;4.70;99.90;;;;;;5069990;28;20044;-80
2022/01/31 08:40:20;;;;;;;11.60;1.27;;;4.80;99.90;;;;;;5071330;28;20085;-80
2022/01/31 08:42:46;;;;;;;11.90;1.23;;;6.00;99.90;;;;;;5054925;28;20127;-81
2022/01/31 08:45:12;;;;;;;12.05;1.38;;;4.40;99.90;;;;;;5054732;28;20484;-86
2022/01/31 08:47:41;;;;;;;8.70;1.17;;;4.90;99.90;;;;;;5071415;28;20051;-80
2022/01/31 08:50:08;;;;;;;8.05;1.23;;;5.00;99.90;;;;;;5072149;28;20040;-81
2022/01/31 08:52:34;;;;;;;8.48;1.33;;;5.00;99.90;;;;;;5072808;28;20047;-86
2022/01/31 08:54:59;;;;;;;16.17;1.60;;;5.00;99.90;;;;;;5071356;28;20044;-80
2022/01/31 08:57:25;;;;;;;11.35;1.27;;;5.00;99.90;;;;;;5070056;28;20040;-88
2022/01/31 08:59:52;;;;;;;15.23;5.38;;;5.00;99.90;;;;;;5071415;28;20141;-81
2022/01/31 09:02:25;;;;;;;18.65;3.85;;;5.00;99.90;;;;;;5070778;28;20052;-84
2022/01/31 09:04:53;;;;;;;19.55;5.35;;;5.10;99.90;;;;;;5064212;28;20388;-84
2022/01/31 09:07:21;;;;;;;19.15;2.00;;;5.00;99.90;;;;;;5070790;28;20055;-89
2022/01/31 09:09:53;;;;;;;14.75;1.67;;;5.10;99.90;;;;;;5054564;28;20511;-81
2022/01/31 09:12:20;;;;;;;15.75;1.85;;;5.10;99.90;;;;;;5070665;28;20431;-81
2022/01/31 09:14:46;;;;;;;5.82;1.10;;;5.20;99.90;;;;;;5072259;28;20060;-83
2022/01/31 09:17:12;;;;;;;10.02;1.60;;;5.20;99.90;;;;;;5070115;28;20099;-86
2022/01/31 09:19:37;;;;;;;10.68;1.98;;;5.20;99.90;;;;;;5053720;28;20468;-88
2022/01/31 09:22:04;;;;;;;14.98;2.28;;;5.20;99.90;;;;;;5054380;28;20131;-80
2022/01/31 09:24:30;;;;;;;10.20;1.17;;;5.10;99.90;;;;;;5070291;28;20041;-82
2022/01/31 09:26:56;;;;;;;11.35;0.90;;;5.30;99.90;;;;;;5054056;28;20060;-81
2022/01/31 09:29:22;;;;;;;13.23;1.60;;;5.30;99.90;;;;;;5072972;28;20043;-85
2022/01/31 09:31:47;;;;;;;12.40;1.90;;;5.40;99.90;;;;;;5072617;28;20041;-81
2022/01/31 09:34:13;;;;;;;38.92;23.05;;;5.40;99.90;;;;;;5073997;28;20373;-80
2022/01/31 09:36:39;;;;;;;11.98;4.15;;;5.50;99.90;;;;;;5070413;28;20067;-88
2022/01/31 09:39:07;;;;;;;11.95;1.45;;;5.40;99.90;;;;;;5069625;28;20086;-83
2022/01/31 09:41:34;;;;;;;11.02;1.20;;;5.50;99.90;;;;;;5070530;28;20123;-88
2022/01/31 09:49:26;;;;;;;12.20;0.90;;;5.60;99.90;;;;;;5046109;28;20175;-88
2022/01/31 09:51:52;;;;;;;13.13;1.67;;;5.50;99.90;;;;;;5054255;28;20048;-84
2022/01/31 09:54:17;;;;;;;12.60;1.40;;;5.60;99.90;;;;;;5069291;28;20044;-87
2022/01/31 09:56:46;;;;;;;10.85;1.35;;;5.60;99.90;;;;;;5053256;28;20040;-80
2022/01/31 09:59:14;;;;;;;6.63;0.80;;;5.60;99.90;;;;;;5053029;28;20127;-87
2022/01/31 10:01:45;;;;;;;13.80;1.70;;;5.70;99.90;;;;;;5069940;28;20080;-88
2022/01/31 10:04:17;;;;;;;11.60;1.15;;;5.60;99.90;;;;;;5053445;28;20496;-79
2022/01/31 10:06:51;;;;;;;16.55;2.08;;;5.90;99.90;;;;;;5052482;28;20040;-81
2022/01/31 10:09:26;;;;;;;14.35;1.80;;;5.90;99.90;;;;;;5070950;28;20041;-80
2022/01/31 10:12:05;;;;;;;13.15;1.50;;;5.90;99.90;;;;;;5072020;28;20048;-85
2022/01/31 10:17:30;;;;;;;12.00;1.70;;;6.00;99.90;;;;;;5064554;28;20052;-87
2022/01/31 10:20:20;;;;;;;14.52;2.00;;;6.00;99.90;;;;;;5069829;28;20044;-79
2022/01/31 10:22:46;;;;;;;8.23;0.88;;;6.10;99.90;;;;;;5069652;28;20121;-88
2022/01/31 10:25:16;;;;;;;12.05;1.77;;;6.10;99.90;;;;;;5069283;28;20072;-84
2022/01/31 10:27:53;;;;;;;13.88;1.17;;;6.10;99.90;;;;;;5067671;28;20055;-87
2022/01/31 10:30:23;;;;;;;15.07;2.83;;;6.10;99.90;;;;;;5052985;28;20041;-80
2022/01/31 10:32:50;;;;;;;14.98;1.70;;;6.10;99.90;;;;;;5042610;28;20136;-79
2022/01/31 10:35:19;;;;;;;14.52;1.25;;;6.10;99.90;;;;;;5056628;28;20068;-84
2022/01/31 10:37:46;;;;;;;31.67;14.25;;;6.20;99.90;;;;;;5074032;28;20044;-87
2022/01/31 10:43:36;;;;;;;13.20;1.83;;;6.20;99.90;;;;;;5073657;28;20127;-79
2022/01/31 10:50:36;;;;;;;8.23;0.85;;;6.30;99.90;;;;;;5073469;28;20055;-87
2022/01/31 10:57:02;;;;;;;8.18;1.35;;;6.30;99.90;;;;;;5073671;28;20443;-79
2022/01/31 10:59:37;;;;;;;14.68;1.35;;;6.50;99.90;;;;;;5056719;28;20048;-80
2022/01/31 11:02:06;;;;;;;20.77;2.63;;;6.50;99.90;;;;;;5072611;28;20044;-86
2022/01/31 11:04:40;;;;;;;13.35;1.55;;;6.50;99.90;;;;;;5056456;28;20127;-86
2022/01/31 11:07:09;;;;;;;19.77;2.13;;;6.60;99.90;;;;;;5073127;28;20045;-87
2022/01/31 11:09:35;;;;;;;12.73;1.63;;;6.60;99.90;;;;;;5072499;28;20101;-89
2022/01/31 11:12:02;;;;;;;23.88;2.72;;;6.60;99.90;;;;;;5073309;28;20128;-79
2022/01/31 11:14:27;;;;;;;12.40;2.03;;;8.50;99.90;;;;;;5073159;28;20041;-86
2022/01/31 11:16:56;;;;;;;17.40;2.47;;;6.80;99.90;;;;;;5072708;28;20187;-87
2022/01/31 11:19:33;;;;;;;18.30;1.88;;;6.80;99.90;;;;;;5073314;28;20037;-81
2022/01/31 11:22:02;;;;;;;22.45;2.72;;;6.90;99.90;;;;;;5072568;28;20053;-80
2022/01/31 11:24:34;;;;;;;20.63;2.80;;;6.90;99.90;;;;;;5073693;28;20500;-81
2022/01/31 11:27:09;;;;;;;20.35;3.13;;;6.90;99.90;;;;;;5072910;28;20400;-80
2022/01/31 11:29:40;;;;;;;31.23;4.45;;;6.90;99.90;;;;;;5072600;28;20045;-89
2022/01/31 11:32:05;;;;;;;21.17;2.88;;;6.70;99.90;;;;;;5074947;28;20064;-80
2022/01/31 11:34:31;;;;;;;20.83;2.08;;;6.90;99.90;;;;;;5077923;28;20048;-78
2022/01/31 11:36:58;;;;;;;21.83;2.55;;;6.90;99.90;;;;;;5057854;28;20396;-88
2022/01/31 11:39:24;;;;;;;15.07;2.88;;;6.90;99.90;;;;;;5072969;28;20040;-89
2022/01/31 11:42:01;;;;;;;21.63;2.70;;;7.00;99.90;;;;;;5056153;28;20051;-88
2022/01/31 11:44:49;;;;;;;18.35;2.17;;;7.10;99.90;;;;;;5071998;28;20055;-88
2022/01/31 11:47:20;;;;;;;9.45;1.52;;;7.20;99.90;;;;;;5065672;28;20036;-88
2022/01/31 11:49:48;;;;;;;10.02;1.98;;;7.30;99.90;;;;;;5074550;28;20094;-90
2022/01/31 11:52:17;;;;;;;25.27;2.78;;;7.30;99.90;;;;;;5064981;28;20093;-80
2022/01/31 11:55:00;;;;;;;13.98;3.08;;;7.40;99.90;;;;;;5073621;28;20056;-81
2022/01/31 11:57:29;;;;;;;18.73;2.80;;;7.40;99.90;;;;;;5066719;28;20094;-79
2022/01/31 12:00:07;;;;;;;17.08;1.85;;;7.30;99.90;;;;;;5072576;28;20077;-85
2022/01/31 12:02:43;;;;;;;11.18;2.08;;;7.30;99.90;;;;;;5073925;28;20048;-80
2022/01/31 12:05:14;;;;;;;12.48;1.77;;;7.30;99.90;;;;;;5072524;28;20048;-82
2022/01/31 12:07:44;;;;;;;14.68;2.05;;;7.40;99.90;;;;;;5073802;28;20067;-79
2022/01/31 12:10:36;;;;;;;16.73;2.05;;;9.00;99.90;;;;;;5072943;28;20511;-83
2022/01/31 12:13:27;;;;;;;17.52;2.08;;;7.30;99.90;;;;;;5072721;28;20082;-80
2022/01/31 12:23:54;;;;;;;16.85;2.50;;;7.30;99.90;;;;;;5072787;28;20545;-82
2022/01/31 12:26:32;;;;;;;15.43;2.38;;;7.30;99.90;;;;;;5063951;28;20044;-80
2022/01/31 12:29:07;;;;;;;15.30;2.78;;;7.40;99.90;;;;;;5072732;28;20041;-85
2022/01/31 12:31:41;;;;;;;18.23;1.88;;;7.40;99.90;;;;;;5072633;28;20040;-83
2022/01/31 12:34:21;;;;;;;23.77;2.35;;;7.40;99.90;;;;;;5072005;28;20045;-88
2022/01/31 12:36:54;;;;;;;17.55;2.47;;;7.30;99.90;;;;;;5071729;28;20055;-80
2022/01/31 12:39:36;;;;;;;21.88;2.75;;;7.30;99.90;;;;;;5062387;28;20036;-80
2022/01/31 12:45:36;;;;;;;26.70;3.72;;;7.30;99.90;;;;;;5070889;28;20075;-81
2022/01/31 12:48:08;;;;;;;17.88;2.97;;;7.30;99.90;;;;;;5053529;28;20438;-90
2022/01/31 12:50:49;;;;;;;25.05;2.40;;;7.30;99.90;;;;;;5071866;28;20040;-89
2022/01/31 12:53:25;;;;;;;18.30;2.72;;;7.30;99.90;;;;;;5054434;28;20037;-83
2022/01/31 12:56:06;;;;;;;30.38;3.70;;;7.20;99.90;;;;;;5050227;28;20055;-80
2022/01/31 12:58:40;;;;;;;14.35;2.60;;;9.30;99.90;;;;;;5047681;28;20045;-84
2022/01/31 13:01:11;;;;;;;34.50;7.88;;;7.30;99.90;;;;;;5070471;28;20048;-90
2022/01/31 13:03:39;;;;;;;15.40;2.92;;;7.30;99.90;;;;;;5071246;28;20033;-81
2022/01/31 13:06:27;;;;;;;22.92;3.40;;;7.20;99.90;;;;;;5072262;28;20094;-82
2022/01/31 13:08:52;;;;;;;17.02;3.42;;;8.90;99.90;;;;;;5071110;28;20423;-90
2022/01/31 13:11:18;;;;;;;20.83;3.83;;;7.30;99.90;;;;;;5071202;28;20041;-89
2022/01/31 13:13:45;;;;;;;21.08;2.45;;;7.30;99.90;;;;;;5071449;28;20043;-88
2022/01/31 13:16:12;;;;;;;32.53;5.72;;;7.30;99.90;;;;;;5053254;28;20423;-79
2022/01/31 13:18:39;;;;;;;23.13;3.30;;;7.30;99.90;;;;;;5054245;28;20499;-82
2022/01/31 13:21:09;;;;;;;22.02;2.47;;;7.30;99.90;;;;;;5071127;28;20404;-86
2022/01/31 13:23:36;;;;;;;20.58;3.60;;;8.40;99.90;;;;;;5070411;28;20041;-83
2022/01/31 13:26:04;;;;;;;19.25;3.03;;;7.00;99.90;;;;;;5070635;28;20480;-81
2022/01/31 13:28:31;;;;;;;32.33;3.90;;;7.30;99.90;;;;;;5072427;28;20369;-89